Tuesday, September 30, 2014, 3:52 PM EDT

KNHK, Nas Patuxent River Md

Location: Patuxent River, MD, United States Lat: 38.3
Local Time: 3:52 PM EDT (19:52 GMT) Lon: -76.4
Time Zone: US/Eastern Elev: 39 ft

Show me the last for .
Show Decoded

2014-09-30 14:52 METAR KNHK 301852Z 12004KT 10SM SCT040 23/16 A2988 RMK AO2 SLP119 T02330156 =
2014-09-30 13:52 METAR KNHK 301752Z 12005KT 10SM FEW025 23/16 A2989 RMK AO2 SLP123 T02330156
                 10233 20172 58012 =
2014-09-30 12:52 METAR KNHK 301652Z VRB05KT 10SM FEW022 22/17 A2991 RMK AO2 SLP129 T02220167 =
2014-09-30 11:52 METAR KNHK 301552Z 00000KT 10SM SCT014 22/17 A2992 RMK AO2 SLP133 T02220172 =
2014-09-30 11:48 METAR KNHK 301548Z 00000KT 10SM SCT014 22/17 A2992 RMK AO2 =
2014-09-30 11:23 METAR KNHK 301523Z VRB03KT 10SM BKN014 22/17 A2992 RMK AO2 T02170167 =
2014-09-30 11:19 METAR KNHK 301519Z 12003KT 10SM SCT014 22/17 A2993 RMK AO2 T02170167 =
2014-09-30 10:52 METAR KNHK 301452Z 00000KT 10SM BKN011 21/17 A2993 RMK AO2 SLP135 T02060172
                 58002 =
2014-09-30 10:40 METAR KNHK 301440Z 00000KT 8SM BKN010 20/17 A2993 RMK AO2 T02000167 =
2014-09-30 10:25 METAR KNHK 301425Z 22005KT 8SM BKN009 19/17 A2993 RMK AO2 T01940167 =
2014-09-30 10:02 METAR KNHK 301402Z VRB03KT 7SM SCT008 19/17 A2993 RMK AO2 T01940172 =
2014-09-30 09:52 METAR KNHK 301352Z 28004KT 7SM BKN007 19/17 A2993 RMK AO2 SLP136 T01890172 =
2014-09-30 09:46 METAR KNHK 301346Z 29004KT 7SM BKN006 19/17 A2993 RMK AO2 =
2014-09-30 09:14 METAR KNHK 301314Z 24005KT 5SM BR BKN004 18/17 A2994 RMK AO2 T01780167 =
2014-09-30 08:52 METAR KNHK 301252Z 22004KT 4SM BR BKN003 18/17 A2994 RMK AO2 SLP137 T01780172 =
2014-09-30 08:19 METAR KNHK 301219Z 25003KT 2SM BR BKN003 18/17 A2993 RMK AO2 SFC VIS 3 T01780167
                 =
2014-09-30 07:55 METAR KNHK 301155Z 10004KT 1SM BR OVC002 17/17 A2993 RMK AO2 SFC VIS 3 T01720167
                 =
2014-09-30 07:52 METAR KNHK 301152Z 09004KT 4SM BR OVC002 17/17 A2993 RMK AO2 SLP136 VIS NE-SE-S
                 1 1/4 70003 T01720167 10172 20156 51009 =
2014-09-30 06:52 METAR KNHK 301052Z 00000KT 3SM BR OVC003 17/17 A2993 RMK AO2 SLP134 T01720167 =
2014-09-30 06:28 METAR KNHK 301028Z 00000KT 3SM BR OVC002 17/17 A2992 RMK AO2 T01720167 =
2014-09-30 05:52 METAR KNHK 300952Z 00000KT 4SM BR OVC004 17/16 A2991 RMK AO2 SLP130 T01720161 =
2014-09-30 05:33 METAR KNHK 300933Z 00000KT 6SM BR OVC004 17/17 A2991 RMK AO2 T01720167 =
2014-09-30 05:15 METAR KNHK 300915Z 00000KT 7SM BKN003 BKN013 OVC120 17/16 A2991 RMK AO2
                 T01670161 =
2014-09-30 05:04 METAR KNHK 300904Z 22004KT 7SM BKN013 BKN120 16/16 A2991 RMK AO2 T01610156 =
2014-09-30 04:52 METAR KNHK 300852Z AUTO 21003KT 7SM FEW110 16/16 A2991 RMK AO2 SLP127 T01610156
                 55011 =
2014-09-30 03:52 METAR KNHK 300752Z AUTO 19003KT 10SM CLR 17/17 A2990 RMK AO2 SLP126 T01720167 =
2014-09-30 03:26 METAR KNHK 300726Z AUTO 21003KT 3SM BR CLR 17/16 A2991 RMK AO2 T01720161 =
2014-09-30 03:22 METAR KNHK 300722Z AUTO 19003KT 1 1/2SM BR CLR 17/16 A2991 RMK AO2 T01670161 =
2014-09-30 03:10 METAR KNHK 300710Z AUTO 00000KT 2SM BR FEW120 16/16 A2990 RMK AO2 VIS 1 1/4V3
                 T01610156 =
2014-09-30 02:59 METAR KNHK 300659Z AUTO 00000KT 1 1/4SM BR CLR 16/16 A2991 RMK AO2 T01610156 =
2014-09-30 02:52 METAR KNHK 300652Z AUTO 00000KT 2SM BR CLR 16/16 A2992 RMK AO2 SLP130 T01610156
                 =
2014-09-30 02:46 METAR KNHK 300646Z AUTO 00000KT 1 1/2SM BR CLR 16/15 A2992 RMK AO2 VIS 1V2 =
2014-09-30 02:33 METAR KNHK 300633Z AUTO 18003KT 3/4SM BR FEW120 16/16 A2992 RMK AO2 T01610156 =
2014-09-30 02:27 METAR KNHK 300627Z AUTO 00000KT 1 3/4SM BR FEW120 16/15 A2992 RMK AO2 T01610150
                 =
2014-09-30 01:52 METAR KNHK 300552Z AUTO 00000KT 10SM SCT120 17/16 A2994 RMK AO2 SLP139 60002
                 T01720161 10189 20172 56005 =
2014-09-30 00:52 METAR KNHK 300452Z AUTO 21004KT 10SM CLR 17/16 A2994 RMK AO2 SLP140 T01720161
                 402170144 =
2014-09-29 23:52 METAR KNHK 300352Z AUTO 00000KT 10SM SCT120 18/17 A2995 RMK AO2 RAE14 SLP142
                 P0000 T01830167 =
2014-09-29 22:52 METAR KNHK 300252Z 22004KT 10SM -RA BKN120 OVC180 18/17 A2995 RMK AO2 SLP143
                 P0001 60002 T01830172 51003 =
2014-09-29 21:52 METAR KNHK 300152Z 00000KT 10SM -RA BKN120 OVC180 18/17 A2995 RMK AO2 RAB15
                 SLP143 P0001 T01830172 =
2014-09-29 20:52 METAR KNHK 300052Z 00000KT 10SM SCT090 BKN110 OVC180 19/17 A2995 RMK AO2 SLP142
                 T01890172 =
2014-09-29 19:52 METAR KNHK 292352Z 24004KT 10SM BKN075 BKN100 BKN180 19/17 A2995 RMK AO2 SLP141
                 60001 T01890172 10211 20183 53000 =
2014-09-29 18:52 METAR KNHK 292252Z 00000KT 10SM SCT065 BKN090 BKN180 19/17 A2995 RMK AO2
                 RAB39E50 SLP140 P0000 T01940172 =
2014-09-29 17:52 METAR KNHK 292152Z 00000KT 10SM FEW075 OVC090 20/17 A2994 RMK AO2 RAE21 SLP139
                 P0000 T02000167 =
2014-09-29 16:52 METAR KNHK 292052Z 25005KT 10SM -RA BKN070 OVC090 20/17 A2995 RMK AO2 RAB28
                 SLP140 P0000 60001 T02000167 56010 =

Support USWX by starting your Amazon purchase here.